createdAt,value
2018-05-11T00:00:23.575Z,74.20
2018-05-11T00:02:50.405Z,74.20
2018-05-11T00:05:17.280Z,74.20
2018-05-11T00:07:44.318Z,74.10
2018-05-11T00:10:11.465Z,74.10
2018-05-11T00:12:38.517Z,73.90
2018-05-11T00:15:05.363Z,73.90
2018-05-11T00:17:32.209Z,74.10
2018-05-11T00:19:59.094Z,74.20
2018-05-11T00:22:26.099Z,74.20
2018-05-11T00:24:53.050Z,74.20
2018-05-11T00:27:19.997Z,74.50
2018-05-11T00:29:47.054Z,74.50
2018-05-11T00:32:13.990Z,74.70
2018-05-11T00:34:41.124Z,74.60
2018-05-11T00:37:07.935Z,74.70
2018-05-11T00:39:35.554Z,74.70
2018-05-11T00:42:02.601Z,74.70
2018-05-11T00:44:29.659Z,74.90
2018-05-11T00:46:56.511Z,75.00
2018-05-11T00:49:23.559Z,75.00
2018-05-11T00:51:50.491Z,74.90
2018-05-11T00:54:17.448Z,75.20
2018-05-11T00:56:44.491Z,75.20
2018-05-11T00:59:11.541Z,75.30
2018-05-11T01:01:38.596Z,75.40
2018-05-11T01:04:05.658Z,75.60
2018-05-11T01:06:34.123Z,75.80
2018-05-11T01:09:01.175Z,75.70
2018-05-11T01:11:28.119Z,75.80
2018-05-11T01:13:55.167Z,76.00
2018-05-11T01:16:22.124Z,76.10
2018-05-11T01:18:48.962Z,75.90
2018-05-11T01:21:17.271Z,76.30
2018-05-11T01:23:44.904Z,76.70
2018-05-11T01:26:11.848Z,76.70
2018-05-11T01:28:38.801Z,76.80
2018-05-11T01:31:06.575Z,77.20
2018-05-11T01:33:33.512Z,77.10
2018-05-11T01:36:00.491Z,77.10
2018-05-11T01:38:27.402Z,77.30
2018-05-11T01:40:54.456Z,77.30
2018-05-11T01:43:21.401Z,77.30
2018-05-11T01:45:48.245Z,77.30
2018-05-11T01:48:15.203Z,77.30
2018-05-11T01:50:43.507Z,77.70
2018-05-11T01:53:11.138Z,77.90
2018-05-11T01:55:37.980Z,77.90
2018-05-11T01:58:05.040Z,78.10
2018-05-11T02:00:32.088Z,78.10
2018-05-11T02:02:59.037Z,78.50
2018-05-11T02:05:26.283Z,78.50
2018-05-11T02:07:53.239Z,78.50
2018-05-11T02:10:20.180Z,78.60
2018-05-11T02:12:47.130Z,78.50
2018-05-11T02:15:13.998Z,78.50
2018-05-11T02:17:40.916Z,78.40
2018-05-11T02:20:07.757Z,78.30
2018-05-11T02:22:34.708Z,78.50
2018-05-11T02:25:01.765Z,78.90
2018-05-11T02:27:28.635Z,79.30
2018-05-11T02:29:55.548Z,79.20
2018-05-11T02:32:22.619Z,78.70
2018-05-11T02:34:49.549Z,78.90
2018-05-11T02:37:16.607Z,79.10
2018-05-11T02:39:43.656Z,79.20
2018-05-11T02:42:10.695Z,79.40
2018-05-11T02:44:37.642Z,79.70
2018-05-11T02:47:04.587Z,79.50
2018-05-11T02:49:31.642Z,79.60
2018-05-11T02:51:58.696Z,79.80
2018-05-11T02:54:25.727Z,80.10
2018-05-11T02:56:52.685Z,80.30
2018-05-11T02:59:19.541Z,80.30
2018-05-11T03:01:46.476Z,80.30
2018-05-11T03:04:13.534Z,81.10
2018-05-11T03:06:40.482Z,80.30
2018-05-11T03:09:07.426Z,80.60
2018-05-11T03:11:34.486Z,80.80
2018-05-11T03:14:01.312Z,80.80
2018-05-11T03:16:28.261Z,80.70
2018-05-11T03:18:55.109Z,81.00
2018-05-11T03:21:21.951Z,80.90
2018-05-11T03:23:48.906Z,81.00
2018-05-11T03:26:17.392Z,80.30
2018-05-11T03:28:44.235Z,80.20
2018-05-11T03:31:10.990Z,80.50
2018-05-11T03:33:37.785Z,80.60
2018-05-11T03:36:04.871Z,80.80
2018-05-11T03:38:31.706Z,80.40
2018-05-11T03:40:58.568Z,80.90
2018-05-11T03:43:25.500Z,79.50
2018-05-11T03:46:07.194Z,79.70
2018-05-11T03:48:34.255Z,80.00
2018-05-11T03:51:01.382Z,80.20
2018-05-11T03:53:28.339Z,80.40
2018-05-11T03:55:55.292Z,80.40
2018-05-11T03:58:22.244Z,80.40
2018-05-11T04:00:49.185Z,80.60
2018-05-11T04:03:28.343Z,80.60
2018-05-11T04:06:14.955Z,80.40
2018-05-11T04:08:43.724Z,80.70
2018-05-11T04:11:11.692Z,80.50
2018-05-11T04:13:38.640Z,80.80
2018-05-11T04:16:05.466Z,81.20
2018-05-11T04:18:32.632Z,81.20
2018-05-11T04:20:59.386Z,81.30
2018-05-11T04:23:26.319Z,81.20
2018-05-11T04:25:53.277Z,80.80
2018-05-11T04:28:20.314Z,80.80
2018-05-11T04:30:47.159Z,80.80
2018-05-11T04:33:14.117Z,80.80
2018-05-11T04:35:41.167Z,81.00
2018-05-11T04:38:08.108Z,80.60
2018-05-11T04:40:35.055Z,80.90
2018-05-11T04:43:01.894Z,81.10
2018-05-11T04:45:28.844Z,81.00
2018-05-11T04:47:55.800Z,80.70
2018-05-11T04:50:22.952Z,80.40
2018-05-11T04:52:49.899Z,80.60
2018-05-11T04:55:16.852Z,80.60
2018-05-11T04:57:43.783Z,80.30
2018-05-11T05:00:10.571Z,80.40
2018-05-11T05:02:38.295Z,80.70
2018-05-11T05:05:05.353Z,80.70
2018-05-11T05:07:32.185Z,80.70
2018-05-11T05:09:59.133Z,80.80
2018-05-11T05:12:26.283Z,80.90
2018-05-11T05:14:53.845Z,81.20
2018-05-11T05:17:20.797Z,81.30
2018-05-11T05:19:47.740Z,81.30
2018-05-11T05:22:14.532Z,81.50
2018-05-11T05:24:42.085Z,81.80
2018-05-11T05:27:09.681Z,81.80
2018-05-11T05:29:36.499Z,81.80
2018-05-11T05:32:04.095Z,82.20
2018-05-11T05:34:30.921Z,82.10
2018-05-11T05:36:57.776Z,82.40
2018-05-11T05:39:45.848Z,82.40
2018-05-11T05:42:12.734Z,82.10
2018-05-11T05:44:40.258Z,82.00
2018-05-11T05:47:07.149Z,81.90
2018-05-11T05:49:34.643Z,82.00
2018-05-11T05:52:01.444Z,82.00
2018-05-11T05:54:28.317Z,81.80
2018-05-11T05:56:55.176Z,81.90
2018-05-11T05:59:22.056Z,82.00
2018-05-11T06:01:49.099Z,82.90
2018-05-11T06:04:16.034Z,82.00
2018-05-11T06:06:42.992Z,81.70
2018-05-11T06:09:09.776Z,81.50
2018-05-11T06:11:36.775Z,81.50
2018-05-11T06:14:04.545Z,81.10
2018-05-11T06:16:31.330Z,81.00
2018-05-11T06:18:59.061Z,82.10
2018-05-11T06:21:26.110Z,82.10
2018-05-11T06:23:53.058Z,82.50
2018-05-11T06:26:19.998Z,82.40
2018-05-11T06:28:46.950Z,81.90
2018-05-11T06:31:13.689Z,81.70
2018-05-11T06:33:40.629Z,81.80
2018-05-11T06:36:07.589Z,81.30
2018-05-11T06:38:34.536Z,80.90
2018-05-11T06:41:01.477Z,81.00
2018-05-11T06:43:28.427Z,80.90
2018-05-11T06:45:55.371Z,80.60
2018-05-11T06:48:22.416Z,80.50
2018-05-11T06:50:49.366Z,80.60
2018-05-11T06:53:16.321Z,79.70
2018-05-11T06:55:43.364Z,79.90
2018-05-11T06:58:10.410Z,80.40
2018-05-11T07:00:37.369Z,80.20
2018-05-11T07:03:04.417Z,79.60
2018-05-11T07:05:31.466Z,79.60
2018-05-11T07:07:58.445Z,79.40
2018-05-11T07:10:25.328Z,80.40
2018-05-11T07:12:52.298Z,79.50
2018-05-11T07:15:22.333Z,79.40
2018-05-11T07:17:49.277Z,79.10
2018-05-11T07:20:16.316Z,79.00
2018-05-11T07:22:43.168Z,78.90
2018-05-11T07:25:10.003Z,77.50
2018-05-11T07:27:36.949Z,77.60
2018-05-11T07:30:04.016Z,76.90
2018-05-11T07:32:31.060Z,76.40
2018-05-11T07:34:58.021Z,75.90
2018-05-11T07:37:25.671Z,75.60
2018-05-11T07:39:52.721Z,75.60
2018-05-11T07:42:19.664Z,75.70
2018-05-11T07:44:46.607Z,76.10
2018-05-11T07:47:13.561Z,75.70
2018-05-11T07:49:40.508Z,75.20
2018-05-11T07:52:07.444Z,75.00
2018-05-11T07:54:34.499Z,75.00
2018-05-11T07:57:01.555Z,75.50
2018-05-11T07:59:28.606Z,75.40
2018-05-11T08:01:55.552Z,74.80
2018-05-11T08:04:22.492Z,74.60
2018-05-11T08:06:49.374Z,75.50
2018-05-11T08:09:16.963Z,74.10
2018-05-11T08:11:43.809Z,74.10
2018-05-11T08:14:10.643Z,74.10
2018-05-11T08:16:37.536Z,75.20
2018-05-11T08:19:04.353Z,75.00
2018-05-11T08:21:31.088Z,75.40
2018-05-11T08:23:57.891Z,75.30
2018-05-11T08:26:25.493Z,74.50
2018-05-11T08:28:52.241Z,74.40
2018-05-11T08:31:19.084Z,74.00
2018-05-11T08:33:45.821Z,73.60
2018-05-11T08:36:12.676Z,73.90
2018-05-11T08:38:39.528Z,73.20
2018-05-11T08:41:07.111Z,72.50
2018-05-11T08:43:33.906Z,72.30
2018-05-11T08:46:00.685Z,73.30
2018-05-11T08:48:27.478Z,73.00
2018-05-11T08:50:55.115Z,73.40
2018-05-11T08:53:21.922Z,73.40
2018-05-11T08:55:48.706Z,73.80
2018-05-11T08:58:15.515Z,73.50
2018-05-11T09:00:43.204Z,73.00
2018-05-11T09:03:10.050Z,72.40
2018-05-11T09:05:36.849Z,72.10
2018-05-11T09:08:03.748Z,72.80
2018-05-11T09:10:30.588Z,73.00
2018-05-11T09:12:57.480Z,72.60
2018-05-11T09:15:44.906Z,72.60
2018-05-11T09:18:11.695Z,73.00
2018-05-11T09:20:38.488Z,73.20
2018-05-11T09:23:06.083Z,73.40
2018-05-11T09:25:32.884Z,73.40
2018-05-11T09:28:00.469Z,73.70
2018-05-11T09:30:27.480Z,73.70
2018-05-11T09:32:54.269Z,74.10
2018-05-11T09:35:21.128Z,73.30
2018-05-11T09:37:47.927Z,74.20
2018-05-11T09:40:15.555Z,74.10
2018-05-11T09:42:42.412Z,74.10
2018-05-11T09:45:09.360Z,73.90
2018-05-11T09:47:36.210Z,72.70
2018-05-11T09:50:03.107Z,73.80
2018-05-11T09:52:29.857Z,74.80
2018-05-11T09:54:56.589Z,74.70
2018-05-11T09:57:23.417Z,74.60
2018-05-11T09:59:50.192Z,73.60
2018-05-11T10:02:16.985Z,72.50
2018-05-11T10:04:44.578Z,71.60
2018-05-11T10:07:11.420Z,71.60
2018-05-11T10:09:38.267Z,71.90
2018-05-11T10:12:05.112Z,72.20
2018-05-11T10:20:23.407Z,70.80
2018-05-11T10:22:50.339Z,70.60
2018-05-11T10:25:17.163Z,70.60
2018-05-11T10:27:44.806Z,70.90
2018-05-11T10:30:11.638Z,70.80
2018-05-11T10:32:38.416Z,70.20
2018-05-11T10:35:06.061Z,68.90
2018-05-11T10:37:32.869Z,68.10
2018-05-11T10:39:59.646Z,68.30
2018-05-11T10:42:26.445Z,68.90
2018-05-11T10:44:53.225Z,69.20
2018-05-11T10:47:20.264Z,69.30
2018-05-11T10:49:47.223Z,69.10
2018-05-11T10:52:14.273Z,69.10
2018-05-11T10:54:41.106Z,69.00
2018-05-11T10:57:08.159Z,67.50
2018-05-11T10:59:35.109Z,68.30
2018-05-11T11:02:02.156Z,69.50
2018-05-11T11:04:29.001Z,70.50
2018-05-11T11:06:55.956Z,67.30
2018-05-11T11:09:23.005Z,68.00
2018-05-11T11:11:49.840Z,68.50
2018-05-11T11:14:22.873Z,67.00
2018-05-11T11:16:50.456Z,67.10
2018-05-11T11:19:17.471Z,67.10
2018-05-11T11:21:45.089Z,66.40
2018-05-11T11:24:11.890Z,66.30
2018-05-11T11:26:39.410Z,66.70
2018-05-11T11:29:06.243Z,66.50
2018-05-11T11:31:33.120Z,66.70
2018-05-11T11:33:59.942Z,64.90
2018-05-11T11:36:26.723Z,65.90
2018-05-11T11:38:54.306Z,66.10
2018-05-11T11:41:21.077Z,66.10
2018-05-11T11:43:47.873Z,66.50
2018-05-11T11:46:15.403Z,65.60
2018-05-11T11:48:42.221Z,65.60
2018-05-11T11:51:09.052Z,65.80
2018-05-11T11:53:35.885Z,65.00
2018-05-11T11:56:02.693Z,65.30
2018-05-11T11:58:30.244Z,64.30
2018-05-11T12:00:57.074Z,64.30
2018-05-11T12:03:23.849Z,65.80
2018-05-11T12:05:50.636Z,66.00
2018-05-11T12:08:17.433Z,66.30
2018-05-11T12:10:44.290Z,65.00
2018-05-11T12:13:11.955Z,63.90
2018-05-11T12:18:41.788Z,64.90
2018-05-11T12:21:09.371Z,65.80
2018-05-11T12:23:36.942Z,64.90
2018-05-11T12:26:03.902Z,64.90
2018-05-11T12:28:30.662Z,65.30
2018-05-11T12:30:57.486Z,65.10
2018-05-11T12:33:25.039Z,66.30
2018-05-11T12:35:51.869Z,66.30
2018-05-11T12:38:19.475Z,64.80
2018-05-11T12:40:46.345Z,64.80
2018-05-11T12:43:13.091Z,65.40
2018-05-11T12:45:39.995Z,65.20
2018-05-11T12:48:06.733Z,66.20
2018-05-11T12:50:33.619Z,65.30
2018-05-11T12:53:00.563Z,60.70
2018-05-11T12:55:27.420Z,62.40
2018-05-11T12:57:54.234Z,62.20
2018-05-11T13:00:21.204Z,61.90
2018-05-11T13:02:48.002Z,61.30
2018-05-11T13:05:14.875Z,61.80
2018-05-11T13:07:41.799Z,61.70
2018-05-11T13:10:08.590Z,62.20
2018-05-11T13:12:35.416Z,61.60
2018-05-11T13:15:21.291Z,62.30
2018-05-11T13:17:48.125Z,61.90
2018-05-11T13:20:14.913Z,61.40
2018-05-11T13:22:41.705Z,62.30
2018-05-11T13:25:08.601Z,62.60
2018-05-11T13:27:35.483Z,61.40
2018-05-11T13:30:02.426Z,61.80
2018-05-11T13:32:29.977Z,63.10
2018-05-11T13:34:57.608Z,62.00
2018-05-11T13:37:24.480Z,62.00
2018-05-11T13:39:52.030Z,62.40
2018-05-11T13:42:18.872Z,62.40
2018-05-11T13:44:45.695Z,59.60
2018-05-11T13:47:12.468Z,59.70
2018-05-11T13:49:39.249Z,60.50
2018-05-11T13:52:06.139Z,61.10
2018-05-11T13:54:32.989Z,61.20
2018-05-11T13:56:59.752Z,61.30
2018-05-11T13:59:27.314Z,61.00
2018-05-11T14:01:54.841Z,57.70
2018-05-11T14:04:21.617Z,57.60
2018-05-11T14:06:49.285Z,57.90
2018-05-11T14:09:16.907Z,58.10
2018-05-11T14:11:43.683Z,58.00
2018-05-11T14:14:10.414Z,58.00
2018-05-11T14:16:46.823Z,57.40
2018-05-11T14:19:14.201Z,58.00
2018-05-11T14:21:41.109Z,56.00
2018-05-11T14:24:08.717Z,58.50
2018-05-11T14:26:35.595Z,58.40
2018-05-11T14:29:02.420Z,58.30
2018-05-11T14:31:29.310Z,57.50
2018-05-11T14:33:56.873Z,56.80
2018-05-11T14:36:24.402Z,57.60
2018-05-11T14:38:51.160Z,57.60
2018-05-11T14:41:20.039Z,57.60
2018-05-11T14:43:46.869Z,57.60
2018-05-11T14:46:13.661Z,57.60
2018-05-11T14:48:41.211Z,57.80
2018-05-11T14:51:08.888Z,57.70
2018-05-11T14:53:36.460Z,58.70
2018-05-11T14:56:03.258Z,58.70
2018-05-11T14:58:30.030Z,61.30
2018-05-11T15:00:57.588Z,62.30
2018-05-11T15:03:24.401Z,62.30
2018-05-11T15:05:51.300Z,62.30
2018-05-11T15:08:18.140Z,62.70
2018-05-11T15:10:45.014Z,63.40
2018-05-11T15:13:12.604Z,63.70
2018-05-11T15:18:44.627Z,63.50
2018-05-11T15:21:12.236Z,61.30
2018-05-11T15:23:39.039Z,61.30
2018-05-11T15:26:06.576Z,60.00
2018-05-11T15:28:33.388Z,59.90
2018-05-11T15:31:00.226Z,60.70
2018-05-11T15:33:27.083Z,60.50
2018-05-11T15:35:53.892Z,61.60
2018-05-11T15:38:20.664Z,60.30
2018-05-11T15:40:47.517Z,60.60
2018-05-11T15:43:14.322Z,61.40
2018-05-11T15:45:41.035Z,60.90
2018-05-11T15:48:08.630Z,61.20
2018-05-11T15:50:35.428Z,61.20
2018-05-11T15:53:02.213Z,61.40
2018-05-11T15:55:29.026Z,61.80
2018-05-11T15:57:56.527Z,61.40
2018-05-11T16:00:23.390Z,62.10
2018-05-11T16:02:50.268Z,60.90
2018-05-11T16:05:17.104Z,61.00
2018-05-11T16:07:43.962Z,62.20
2018-05-11T16:10:11.610Z,61.40
2018-05-11T16:12:38.434Z,61.20
2018-05-11T16:18:07.033Z,60.00
2018-05-11T16:20:33.978Z,61.70
2018-05-11T16:23:00.742Z,62.50
2018-05-11T16:25:28.050Z,61.50
2018-05-11T16:27:55.625Z,63.20
2018-05-11T16:30:22.727Z,63.20
2018-05-11T16:32:49.580Z,63.00
2018-05-11T16:35:17.094Z,62.80
2018-05-11T16:37:43.807Z,62.80
2018-05-11T16:40:11.433Z,61.10
2018-05-11T16:42:38.278Z,61.00
2018-05-11T16:45:05.196Z,61.10
2018-05-11T16:47:31.988Z,61.60
2018-05-11T16:49:59.468Z,62.70
2018-05-11T16:52:27.068Z,62.70
2018-05-11T16:54:53.943Z,62.60
2018-05-11T16:57:20.798Z,63.00
2018-05-11T16:59:48.266Z,63.70
2018-05-11T17:02:15.872Z,64.10
2018-05-11T17:04:42.751Z,64.10
2018-05-11T17:07:09.533Z,64.50
2018-05-11T17:09:36.372Z,64.40
2018-05-11T17:12:04.001Z,63.90
2018-05-11T17:14:58.184Z,63.80
2018-05-11T17:17:25.468Z,64.10
2018-05-11T17:19:53.021Z,65.60
2018-05-11T17:22:19.921Z,64.80
2018-05-11T17:24:46.756Z,65.50
2018-05-11T17:27:13.566Z,65.80
2018-05-11T17:29:41.029Z,66.00
2018-05-11T17:32:08.560Z,66.20
2018-05-11T17:34:35.448Z,66.30
2018-05-11T17:37:02.271Z,66.20
2018-05-11T17:39:29.816Z,66.50
2018-05-11T17:41:56.707Z,66.50
2018-05-11T17:44:23.540Z,66.50
2018-05-11T17:46:50.340Z,66.40
2018-05-11T17:49:17.076Z,66.60
2018-05-11T17:51:43.964Z,66.70
2018-05-11T17:54:11.504Z,67.30
2018-05-11T17:56:38.429Z,67.30
2018-05-11T17:59:05.395Z,67.20
2018-05-11T18:01:32.292Z,67.40
2018-05-11T18:03:59.110Z,67.40
2018-05-11T18:06:26.767Z,67.70
2018-05-11T18:08:54.307Z,68.00
2018-05-11T18:11:29.521Z,68.00
2018-05-11T18:13:56.376Z,68.00
2018-05-11T18:16:53.296Z,68.10
2018-05-11T18:19:20.140Z,68.00
2018-05-11T18:21:47.043Z,68.10
2018-05-11T18:24:13.810Z,68.20
2018-05-11T18:26:41.337Z,68.90
2018-05-11T18:29:08.148Z,68.90
2018-05-11T18:31:34.970Z,69.30
2018-05-11T18:34:01.777Z,69.20
2018-05-11T18:36:29.667Z,68.90
2018-05-11T18:38:57.221Z,68.70
2018-05-11T18:41:24.815Z,68.80
2018-05-11T18:43:51.612Z,68.80
2018-05-11T18:46:19.446Z,69.00
2018-05-11T18:48:46.306Z,69.50
2018-05-11T18:51:13.195Z,69.80
2018-05-11T18:53:41.147Z,69.70
2018-05-11T18:56:07.772Z,69.70
2018-05-11T18:58:34.565Z,69.70
2018-05-11T19:01:01.353Z,69.60
2018-05-11T19:03:28.137Z,69.80
2018-05-11T19:05:55.904Z,70.10
2018-05-11T19:08:22.704Z,70.00
2018-05-11T19:10:49.511Z,70.20
2018-05-11T19:13:26.509Z,70.20
2018-05-11T19:18:54.728Z,71.40
2018-05-11T19:21:22.089Z,70.80
2018-05-11T19:23:50.606Z,70.80
2018-05-11T19:26:21.654Z,70.80
2018-05-11T19:28:52.537Z,70.90
2018-05-11T19:31:25.339Z,70.90
2018-05-11T19:33:54.784Z,70.90
2018-05-11T19:36:22.483Z,70.90
2018-05-11T19:38:53.364Z,70.90
2018-05-11T19:41:22.181Z,71.20
2018-05-11T19:43:49.664Z,71.20
2018-05-11T19:46:17.302Z,71.40
2018-05-11T19:48:44.970Z,71.50
2018-05-11T19:51:12.542Z,71.60
2018-05-11T19:53:39.488Z,71.50
2018-05-11T19:56:25.619Z,71.60
2018-05-11T19:58:52.477Z,71.20
2018-05-11T20:01:21.018Z,71.30
2018-05-11T20:03:49.069Z,71.00
2018-05-11T20:06:16.597Z,70.80
2018-05-11T20:08:43.653Z,70.70
2018-05-11T20:11:10.697Z,70.60
2018-05-11T20:13:37.541Z,70.70
2018-05-11T20:19:19.878Z,70.80
2018-05-11T20:21:46.714Z,70.90
2018-05-11T20:24:13.567Z,71.10
2018-05-11T20:26:54.778Z,71.00
2018-05-11T20:29:22.506Z,71.50
2018-05-11T20:31:49.454Z,71.50
2018-05-11T20:34:23.231Z,71.80
2018-05-11T20:36:50.086Z,72.00
2018-05-11T20:39:16.901Z,72.80
2018-05-11T20:41:44.434Z,71.80
2018-05-11T20:44:11.265Z,71.70
2018-05-11T20:46:38.036Z,71.60
2018-05-11T20:49:05.594Z,71.40
2018-05-11T20:51:33.142Z,71.50
2018-05-11T20:54:00.083Z,71.50
2018-05-11T20:56:26.870Z,71.70
2018-05-11T20:58:53.635Z,71.70
2018-05-11T21:01:21.979Z,71.50
2018-05-11T21:03:49.635Z,72.10
2018-05-11T21:06:17.469Z,72.10
2018-05-11T21:08:44.430Z,72.00
2018-05-11T21:11:11.474Z,72.00
2018-05-11T21:13:38.513Z,71.90
2018-05-11T21:19:09.379Z,72.00
2018-05-11T21:21:36.331Z,71.30
2018-05-11T21:24:03.381Z,71.50
2018-05-11T21:26:30.329Z,71.70
2018-05-11T21:28:57.197Z,71.70
2018-05-11T21:31:28.626Z,71.50
2018-05-11T21:33:55.469Z,71.50
2018-05-11T21:36:22.413Z,71.30
2018-05-11T21:38:49.469Z,71.20
2018-05-11T21:41:16.399Z,71.60
2018-05-11T21:43:44.009Z,70.80
2018-05-11T21:46:11.744Z,71.80
2018-05-11T21:48:38.683Z,71.60
2018-05-11T21:51:05.738Z,71.80
2018-05-11T21:53:32.788Z,72.00
2018-05-11T21:55:59.736Z,72.10
2018-05-11T21:58:26.777Z,72.20
2018-05-11T22:00:53.623Z,72.40
2018-05-11T22:03:20.577Z,72.40
2018-05-11T22:05:48.242Z,72.70
2018-05-11T22:08:15.293Z,72.60
2018-05-11T22:10:42.491Z,72.60
2018-05-11T22:13:10.234Z,73.00
2018-05-11T22:15:38.071Z,73.00
2018-05-11T22:18:05.026Z,73.00
2018-05-11T22:20:31.964Z,72.90
2018-05-11T22:22:58.919Z,73.50
2018-05-11T22:25:26.073Z,73.80
2018-05-11T22:27:53.025Z,73.80
2018-05-11T22:30:19.854Z,73.90
2018-05-11T22:32:46.907Z,74.50
2018-05-11T22:35:13.861Z,74.50
2018-05-11T22:37:40.801Z,74.50
2018-05-11T22:40:07.643Z,74.20
2018-05-11T22:42:34.488Z,74.40
2018-05-11T22:45:01.548Z,74.50
2018-05-11T22:47:28.381Z,74.70
2018-05-11T22:49:55.338Z,74.90
2018-05-11T22:52:22.279Z,74.90
2018-05-11T22:54:49.223Z,75.10
2018-05-11T22:57:16.069Z,75.20
2018-05-11T22:59:43.129Z,75.00
2018-05-11T23:02:10.066Z,74.50
2018-05-11T23:04:37.013Z,74.00
2018-05-11T23:07:03.972Z,73.80
2018-05-11T23:09:31.019Z,73.50
2018-05-11T23:11:57.857Z,73.40
2018-05-11T23:14:24.811Z,73.30
2018-05-11T23:16:52.470Z,73.10
2018-05-11T23:19:19.531Z,73.00
2018-05-11T23:21:46.471Z,72.80
2018-05-11T23:24:13.420Z,73.10
2018-05-11T23:26:40.469Z,73.20
2018-05-11T23:29:07.416Z,73.10
2018-05-11T23:31:34.364Z,72.90
2018-05-11T23:34:01.200Z,72.90
2018-05-11T23:36:28.148Z,73.10
2018-05-11T23:38:54.973Z,72.90
2018-05-11T23:41:22.449Z,72.70
2018-05-11T23:43:49.406Z,72.80
2018-05-11T23:46:16.345Z,73.20
2018-05-11T23:48:43.194Z,73.80
2018-05-11T23:51:10.240Z,73.60
2018-05-11T23:53:37.093Z,73.50
2018-05-11T23:56:04.040Z,73.50
2018-05-11T23:58:30.981Z,73.10
